sensor_id;sensor_type;location;lat;lon;timestamp;temperature;humidity
65146;DHT22;51730;56.950;24.126;2023-05-07T00:01:32;5.00;60.20
65146;DHT22;51730;56.950;24.126;2023-05-07T00:03:59;5.00;60.20
65146;DHT22;51730;56.950;24.126;2023-05-07T00:06:26;5.00;60.30
65146;DHT22;51730;56.950;24.126;2023-05-07T00:08:58;5.00;60.40
65146;DHT22;51730;56.950;24.126;2023-05-07T00:11:27;5.00;60.30
65146;DHT22;51730;56.950;24.126;2023-05-07T00:13:54;4.90;60.50
65146;DHT22;51730;56.950;24.126;2023-05-07T00:16:22;4.90;60.50
65146;DHT22;51730;56.950;24.126;2023-05-07T00:18:49;4.80;60.70
65146;DHT22;51730;56.950;24.126;2023-05-07T00:21:16;4.90;60.70
65146;DHT22;51730;56.950;24.126;2023-05-07T00:23:45;4.90;60.80
65146;DHT22;51730;56.950;24.126;2023-05-07T00:26:12;4.90;60.70
65146;DHT22;51730;56.950;24.126;2023-05-07T00:28:39;4.90;61.00
65146;DHT22;51730;56.950;24.126;2023-05-07T00:31:06;4.90;60.60
65146;DHT22;51730;56.950;24.126;2023-05-07T00:33:33;4.90;60.90
65146;DHT22;51730;56.950;24.126;2023-05-07T00:36:00;4.90;60.90
65146;DHT22;51730;56.950;24.126;2023-05-07T00:38:28;4.90;61.20
65146;DHT22;51730;56.950;24.126;2023-05-07T00:40:55;4.90;61.00
65146;DHT22;51730;56.950;24.126;2023-05-07T00:43:22;4.90;61.10
65146;DHT22;51730;56.950;24.126;2023-05-07T00:45:48;4.70;61.70
65146;DHT22;51730;56.950;24.126;2023-05-07T00:48:16;4.80;61.80
65146;DHT22;51730;56.950;24.126;2023-05-07T00:50:43;4.80;61.80
65146;DHT22;51730;56.950;24.126;2023-05-07T00:53:12;4.80;62.00
65146;DHT22;51730;56.950;24.126;2023-05-07T00:55:39;4.90;61.80
65146;DHT22;51730;56.950;24.126;2023-05-07T00:58:06;4.80;61.60
65146;DHT22;51730;56.950;24.126;2023-05-07T01:00:35;4.70;61.90
65146;DHT22;51730;56.950;24.126;2023-05-07T01:03:02;4.70;61.90
65146;DHT22;51730;56.950;24.126;2023-05-07T01:05:30;4.80;62.00
65146;DHT22;51730;56.950;24.126;2023-05-07T01:07:57;4.80;61.90
65146;DHT22;51730;56.950;24.126;2023-05-07T01:10:24;4.80;61.80
65146;DHT22;51730;56.950;24.126;2023-05-07T01:12:51;4.80;62.10
65146;DHT22;51730;56.950;24.126;2023-05-07T01:15:18;4.70;61.90
65146;DHT22;51730;56.950;24.126;2023-05-07T01:17:45;4.70;62.30
65146;DHT22;51730;56.950;24.126;2023-05-07T01:20:12;4.60;62.30
65146;DHT22;51730;56.950;24.126;2023-05-07T01:22:40;4.60;62.40
65146;DHT22;51730;56.950;24.126;2023-05-07T01:25:07;4.60;62.60
65146;DHT22;51730;56.950;24.126;2023-05-07T01:27:35;4.60;62.60
65146;DHT22;51730;56.950;24.126;2023-05-07T01:30:03;4.60;62.80
65146;DHT22;51730;56.950;24.126;2023-05-07T01:32:38;4.60;62.50
65146;DHT22;51730;56.950;24.126;2023-05-07T01:35:10;4.60;62.60
65146;DHT22;51730;56.950;24.126;2023-05-07T01:37:38;4.60;62.40
65146;DHT22;51730;56.950;24.126;2023-05-07T01:40:05;4.60;62.70
65146;DHT22;51730;56.950;24.126;2023-05-07T01:42:35;4.50;62.80
65146;DHT22;51730;56.950;24.126;2023-05-07T01:45:03;4.40;63.30
65146;DHT22;51730;56.950;24.126;2023-05-07T01:47:30;4.50;63.20
65146;DHT22;51730;56.950;24.126;2023-05-07T01:49:57;4.50;62.80
65146;DHT22;51730;56.950;24.126;2023-05-07T01:52:24;4.50;62.80
65146;DHT22;51730;56.950;24.126;2023-05-07T01:54:52;4.30;63.00
65146;DHT22;51730;56.950;24.126;2023-05-07T01:57:19;4.30;63.10
65146;DHT22;51730;56.950;24.126;2023-05-07T01:59:46;4.30;63.30
65146;DHT22;51730;56.950;24.126;2023-05-07T02:02:13;4.30;63.20
65146;DHT22;51730;56.950;24.126;2023-05-07T02:04:40;4.40;63.00
65146;DHT22;51730;56.950;24.126;2023-05-07T02:07:07;4.40;62.90
65146;DHT22;51730;56.950;24.126;2023-05-07T02:09:34;4.50;62.90
65146;DHT22;51730;56.950;24.126;2023-05-07T02:12:00;4.40;62.70
65146;DHT22;51730;56.950;24.126;2023-05-07T02:14:27;4.50;63.00
65146;DHT22;51730;56.950;24.126;2023-05-07T02:16:57;4.40;62.70
65146;DHT22;51730;56.950;24.126;2023-05-07T02:19:23;4.50;62.80
65146;DHT22;51730;56.950;24.126;2023-05-07T02:21:50;4.50;62.80
65146;DHT22;51730;56.950;24.126;2023-05-07T02:24:18;4.50;62.80
65146;DHT22;51730;56.950;24.126;2023-05-07T02:26:45;4.50;62.80
65146;DHT22;51730;56.950;24.126;2023-05-07T02:29:12;4.50;63.00
65146;DHT22;51730;56.950;24.126;2023-05-07T02:31:38;4.50;63.10
65146;DHT22;51730;56.950;24.126;2023-05-07T02:34:05;4.50;63.10
65146;DHT22;51730;56.950;24.126;2023-05-07T02:36:32;4.50;63.20
65146;DHT22;51730;56.950;24.126;2023-05-07T02:38:59;4.50;63.30
65146;DHT22;51730;56.950;24.126;2023-05-07T02:41:26;4.60;62.90
65146;DHT22;51730;56.950;24.126;2023-05-07T02:43:54;4.60;62.80
65146;DHT22;51730;56.950;24.126;2023-05-07T02:46:21;4.50;62.90
65146;DHT22;51730;56.950;24.126;2023-05-07T02:48:48;4.50;62.70
65146;DHT22;51730;56.950;24.126;2023-05-07T02:51:17;4.60;62.70
65146;DHT22;51730;56.950;24.126;2023-05-07T02:53:44;4.60;62.30
65146;DHT22;51730;56.950;24.126;2023-05-07T02:56:10;4.50;63.40
65146;DHT22;51730;56.950;24.126;2023-05-07T02:58:37;4.40;62.40
65146;DHT22;51730;56.950;24.126;2023-05-07T03:01:08;4.50;63.10
65146;DHT22;51730;56.950;24.126;2023-05-07T03:03:35;4.50;63.20
65146;DHT22;51730;56.950;24.126;2023-05-07T03:06:02;4.50;62.50
65146;DHT22;51730;56.950;24.126;2023-05-07T03:08:29;4.50;63.20
65146;DHT22;51730;56.950;24.126;2023-05-07T03:10:56;4.50;63.20
65146;DHT22;51730;56.950;24.126;2023-05-07T03:13:22;4.40;62.70
65146;DHT22;51730;56.950;24.126;2023-05-07T03:15:49;4.60;62.60
65146;DHT22;51730;56.950;24.126;2023-05-07T03:18:16;4.60;62.50
65146;DHT22;51730;56.950;24.126;2023-05-07T03:20:44;4.60;62.50
65146;DHT22;51730;56.950;24.126;2023-05-07T03:23:10;4.60;61.90
65146;DHT22;51730;56.950;24.126;2023-05-07T03:25:37;4.50;62.10
65146;DHT22;51730;56.950;24.126;2023-05-07T03:28:04;4.50;62.20
65146;DHT22;51730;56.950;24.126;2023-05-07T03:30:32;4.60;61.90
65146;DHT22;51730;56.950;24.126;2023-05-07T03:32:58;4.60;61.60
65146;DHT22;51730;56.950;24.126;2023-05-07T03:35:26;4.70;61.60
65146;DHT22;51730;56.950;24.126;2023-05-07T03:37:53;4.70;61.90
65146;DHT22;51730;56.950;24.126;2023-05-07T03:40:21;4.70;61.80
65146;DHT22;51730;56.950;24.126;2023-05-07T03:42:48;4.60;61.60
65146;DHT22;51730;56.950;24.126;2023-05-07T03:45:15;4.70;61.50
65146;DHT22;51730;56.950;24.126;2023-05-07T03:47:42;4.70;61.40
65146;DHT22;51730;56.950;24.126;2023-05-07T03:50:10;4.70;61.50
65146;DHT22;51730;56.950;24.126;2023-05-07T03:52:37;4.70;61.30
65146;DHT22;51730;56.950;24.126;2023-05-07T03:55:06;4.70;61.10
65146;DHT22;51730;56.950;24.126;2023-05-07T03:57:33;4.70;61.40
65146;DHT22;51730;56.950;24.126;2023-05-07T04:00:00;4.80;61.50
65146;DHT22;51730;56.950;24.126;2023-05-07T04:02:27;4.80;61.00
65146;DHT22;51730;56.950;24.126;2023-05-07T04:04:56;4.80;60.80
65146;DHT22;51730;56.950;24.126;2023-05-07T04:07:24;4.90;60.60
65146;DHT22;51730;56.950;24.126;2023-05-07T04:09:53;4.90;60.60
65146;DHT22;51730;56.950;24.126;2023-05-07T04:12:20;4.90;60.60
65146;DHT22;51730;56.950;24.126;2023-05-07T04:14:47;5.00;60.80
65146;DHT22;51730;56.950;24.126;2023-05-07T04:17:14;5.10;60.70
65146;DHT22;51730;56.950;24.126;2023-05-07T04:19:41;5.10;60.70
65146;DHT22;51730;56.950;24.126;2023-05-07T04:22:12;5.20;60.90
65146;DHT22;51730;56.950;24.126;2023-05-07T04:24:42;5.20;61.10
65146;DHT22;51730;56.950;24.126;2023-05-07T04:27:10;5.30;61.20
65146;DHT22;51730;56.950;24.126;2023-05-07T04:29:37;5.30;61.40
65146;DHT22;51730;56.950;24.126;2023-05-07T04:32:05;5.40;61.30
65146;DHT22;51730;56.950;24.126;2023-05-07T04:34:32;5.50;61.80
65146;DHT22;51730;56.950;24.126;2023-05-07T04:37:00;5.50;61.30
65146;DHT22;51730;56.950;24.126;2023-05-07T04:39:27;5.60;61.10
65146;DHT22;51730;56.950;24.126;2023-05-07T04:41:54;5.60;61.50
65146;DHT22;51730;56.950;24.126;2023-05-07T04:44:21;5.70;61.30
65146;DHT22;51730;56.950;24.126;2023-05-07T04:46:48;5.70;61.10
65146;DHT22;51730;56.950;24.126;2023-05-07T04:49:14;5.80;61.20
65146;DHT22;51730;56.950;24.126;2023-05-07T04:51:42;5.80;60.70
65146;DHT22;51730;56.950;24.126;2023-05-07T04:54:10;5.80;61.00
65146;DHT22;51730;56.950;24.126;2023-05-07T04:56:37;5.80;61.00
65146;DHT22;51730;56.950;24.126;2023-05-07T04:59:05;5.90;60.60
65146;DHT22;51730;56.950;24.126;2023-05-07T05:01:32;6.00;60.70
65146;DHT22;51730;56.950;24.126;2023-05-07T05:04:00;6.00;61.10
65146;DHT22;51730;56.950;24.126;2023-05-07T05:06:27;6.10;60.70
65146;DHT22;51730;56.950;24.126;2023-05-07T05:08:54;6.20;60.90
65146;DHT22;51730;56.950;24.126;2023-05-07T05:11:22;6.20;60.60
65146;DHT22;51730;56.950;24.126;2023-05-07T05:13:50;6.30;60.50
65146;DHT22;51730;56.950;24.126;2023-05-07T05:16:17;6.40;60.40
65146;DHT22;51730;56.950;24.126;2023-05-07T05:18:44;6.40;60.10
65146;DHT22;51730;56.950;24.126;2023-05-07T05:21:11;6.50;59.80
65146;DHT22;51730;56.950;24.126;2023-05-07T05:23:38;6.50;59.80
65146;DHT22;51730;56.950;24.126;2023-05-07T05:26:05;6.60;59.80
65146;DHT22;51730;56.950;24.126;2023-05-07T05:28:32;6.70;59.50
65146;DHT22;51730;56.950;24.126;2023-05-07T05:30:59;6.70;58.30
65146;DHT22;51730;56.950;24.126;2023-05-07T05:33:26;6.90;58.50
65146;DHT22;51730;56.950;24.126;2023-05-07T05:35:56;6.90;58.90
65146;DHT22;51730;56.950;24.126;2023-05-07T05:38:22;6.90;57.10
65146;DHT22;51730;56.950;24.126;2023-05-07T05:40:50;6.90;57.60
65146;DHT22;51730;56.950;24.126;2023-05-07T05:43:17;7.00;57.80
65146;DHT22;51730;56.950;24.126;2023-05-07T05:45:43;7.20;56.70
65146;DHT22;51730;56.950;24.126;2023-05-07T05:48:13;7.20;56.50
65146;DHT22;51730;56.950;24.126;2023-05-07T05:50:41;7.30;56.60
65146;DHT22;51730;56.950;24.126;2023-05-07T05:53:08;7.50;55.40
65146;DHT22;51730;56.950;24.126;2023-05-07T05:55:35;7.50;56.10
65146;DHT22;51730;56.950;24.126;2023-05-07T05:58:02;7.60;54.30
65146;DHT22;51730;56.950;24.126;2023-05-07T06:00:29;7.60;54.20
65146;DHT22;51730;56.950;24.126;2023-05-07T06:02:57;7.70;54.90
65146;DHT22;51730;56.950;24.126;2023-05-07T06:05:24;7.90;53.10
65146;DHT22;51730;56.950;24.126;2023-05-07T06:07:51;8.20;51.80
65146;DHT22;51730;56.950;24.126;2023-05-07T06:10:18;8.20;51.20
65146;DHT22;51730;56.950;24.126;2023-05-07T06:12:45;8.00;51.70
65146;DHT22;51730;56.950;24.126;2023-05-07T06:15:12;8.00;52.20
65146;DHT22;51730;56.950;24.126;2023-05-07T06:17:39;8.20;51.50
65146;DHT22;51730;56.950;24.126;2023-05-07T06:20:07;8.20;51.70
65146;DHT22;51730;56.950;24.126;2023-05-07T06:22:36;8.40;51.00
65146;DHT22;51730;56.950;24.126;2023-05-07T06:25:03;8.50;49.80
65146;DHT22;51730;56.950;24.126;2023-05-07T06:27:30;8.80;49.10
65146;DHT22;51730;56.950;24.126;2023-05-07T06:30:00;8.70;48.70
65146;DHT22;51730;56.950;24.126;2023-05-07T06:32:27;9.00;47.00
65146;DHT22;51730;56.950;24.126;2023-05-07T06:34:54;9.10;46.40
65146;DHT22;51730;56.950;24.126;2023-05-07T06:37:22;9.20;46.10
65146;DHT22;51730;56.950;24.126;2023-05-07T06:39:49;9.20;46.70
65146;DHT22;51730;56.950;24.126;2023-05-07T06:42:16;9.20;46.40
65146;DHT22;51730;56.950;24.126;2023-05-07T06:44:43;9.30;44.10
65146;DHT22;51730;56.950;24.126;2023-05-07T06:47:10;9.50;44.80
65146;DHT22;51730;56.950;24.126;2023-05-07T06:49:40;9.40;45.30
65146;DHT22;51730;56.950;24.126;2023-05-07T06:52:07;9.40;45.00
65146;DHT22;51730;56.950;24.126;2023-05-07T06:54:35;9.60;44.60
65146;DHT22;51730;56.950;24.126;2023-05-07T06:57:02;9.70;44.00
65146;DHT22;51730;56.950;24.126;2023-05-07T06:59:29;9.60;44.70
65146;DHT22;51730;56.950;24.126;2023-05-07T07:01:56;9.80;44.50
65146;DHT22;51730;56.950;24.126;2023-05-07T07:04:24;9.90;42.50
65146;DHT22;51730;56.950;24.126;2023-05-07T07:06:53;9.70;44.10
65146;DHT22;51730;56.950;24.126;2023-05-07T07:09:20;9.80;44.20
65146;DHT22;51730;56.950;24.126;2023-05-07T07:11:49;9.90;43.40
65146;DHT22;51730;56.950;24.126;2023-05-07T07:14:16;9.90;42.00
65146;DHT22;51730;56.950;24.126;2023-05-07T07:16:44;9.90;43.00
65146;DHT22;51730;56.950;24.126;2023-05-07T07:19:13;10.00;42.70
65146;DHT22;51730;56.950;24.126;2023-05-07T07:21:41;10.50;39.60
65146;DHT22;51730;56.950;24.126;2023-05-07T07:24:08;10.80;39.00
65146;DHT22;51730;56.950;24.126;2023-05-07T07:26:35;10.80;39.60
65146;DHT22;51730;56.950;24.126;2023-05-07T07:29:02;10.80;38.90
65146;DHT22;51730;56.950;24.126;2023-05-07T07:31:30;10.90;38.90
65146;DHT22;51730;56.950;24.126;2023-05-07T07:33:57;10.70;39.50
65146;DHT22;51730;56.950;24.126;2023-05-07T07:36:24;10.80;38.00
65146;DHT22;51730;56.950;24.126;2023-05-07T07:39:10;10.70;38.60
65146;DHT22;51730;56.950;24.126;2023-05-07T07:41:37;10.60;38.30
65146;DHT22;51730;56.950;24.126;2023-05-07T07:44:04;10.60;39.30
65146;DHT22;51730;56.950;24.126;2023-05-07T07:46:34;10.40;39.70
65146;DHT22;51730;56.950;24.126;2023-05-07T07:49:01;10.30;39.70
65146;DHT22;51730;56.950;24.126;2023-05-07T07:51:28;10.10;39.40
65146;DHT22;51730;56.950;24.126;2023-05-07T07:53:57;10.50;38.60
65146;DHT22;51730;56.950;24.126;2023-05-07T07:56:24;10.60;38.10
65146;DHT22;51730;56.950;24.126;2023-05-07T07:58:52;10.70;38.50
65146;DHT22;51730;56.950;24.126;2023-05-07T08:01:19;10.80;38.90
65146;DHT22;51730;56.950;24.126;2023-05-07T08:03:48;11.00;39.00
65146;DHT22;51730;56.950;24.126;2023-05-07T08:06:15;11.20;38.80
65146;DHT22;51730;56.950;24.126;2023-05-07T08:08:41;11.20;38.40
65146;DHT22;51730;56.950;24.126;2023-05-07T08:11:08;11.30;38.60
65146;DHT22;51730;56.950;24.126;2023-05-07T08:13:36;11.00;38.00
65146;DHT22;51730;56.950;24.126;2023-05-07T08:16:03;11.00;38.70
65146;DHT22;51730;56.950;24.126;2023-05-07T08:18:30;10.90;38.60
65146;DHT22;51730;56.950;24.126;2023-05-07T08:20:57;11.00;38.10
65146;DHT22;51730;56.950;24.126;2023-05-07T08:23:24;11.00;38.60
65146;DHT22;51730;56.950;24.126;2023-05-07T08:25:51;11.00;37.80
65146;DHT22;51730;56.950;24.126;2023-05-07T08:28:18;10.70;38.80
65146;DHT22;51730;56.950;24.126;2023-05-07T08:30:46;10.70;38.70
65146;DHT22;51730;56.950;24.126;2023-05-07T08:33:13;10.70;39.00
65146;DHT22;51730;56.950;24.126;2023-05-07T08:35:41;10.80;39.20
65146;DHT22;51730;56.950;24.126;2023-05-07T08:38:08;10.80;39.20
65146;DHT22;51730;56.950;24.126;2023-05-07T08:40:37;10.90;38.60
65146;DHT22;51730;56.950;24.126;2023-05-07T08:43:07;11.20;36.80
65146;DHT22;51730;56.950;24.126;2023-05-07T08:45:35;11.00;37.20
65146;DHT22;51730;56.950;24.126;2023-05-07T08:48:05;10.90;37.80
65146;DHT22;51730;56.950;24.126;2023-05-07T08:50:35;11.00;38.00
65146;DHT22;51730;56.950;24.126;2023-05-07T08:53:03;11.00;37.20
65146;DHT22;51730;56.950;24.126;2023-05-07T08:55:30;11.10;37.50
65146;DHT22;51730;56.950;24.126;2023-05-07T08:57:58;11.10;37.50
65146;DHT22;51730;56.950;24.126;2023-05-07T09:00:25;11.20;37.60
65146;DHT22;51730;56.950;24.126;2023-05-07T09:02:55;11.10;38.00
65146;DHT22;51730;56.950;24.126;2023-05-07T09:05:22;10.90;38.20
65146;DHT22;51730;56.950;24.126;2023-05-07T09:07:49;11.10;38.20
65146;DHT22;51730;56.950;24.126;2023-05-07T09:10:20;11.20;38.10
65146;DHT22;51730;56.950;24.126;2023-05-07T09:12:47;11.10;37.70
65146;DHT22;51730;56.950;24.126;2023-05-07T09:15:15;11.50;36.70
65146;DHT22;51730;56.950;24.126;2023-05-07T09:17:42;11.60;36.30
65146;DHT22;51730;56.950;24.126;2023-05-07T09:20:09;11.60;35.80
65146;DHT22;51730;56.950;24.126;2023-05-07T09:22:37;11.70;36.20
65146;DHT22;51730;56.950;24.126;2023-05-07T09:25:05;11.80;36.20
65146;DHT22;51730;56.950;24.126;2023-05-07T09:27:32;11.80;35.80
65146;DHT22;51730;56.950;24.126;2023-05-07T09:30:03;11.70;36.30
65146;DHT22;51730;56.950;24.126;2023-05-07T09:32:30;11.80;36.30
65146;DHT22;51730;56.950;24.126;2023-05-07T09:34:59;11.90;35.90
65146;DHT22;51730;56.950;24.126;2023-05-07T09:37:26;12.00;36.60
65146;DHT22;51730;56.950;24.126;2023-05-07T09:39:54;11.90;35.50
65146;DHT22;51730;56.950;24.126;2023-05-07T09:42:24;11.80;35.80
65146;DHT22;51730;56.950;24.126;2023-05-07T09:44:53;11.80;35.00
65146;DHT22;51730;56.950;24.126;2023-05-07T09:47:20;11.60;35.30
65146;DHT22;51730;56.950;24.126;2023-05-07T09:49:55;11.80;36.40
65146;DHT22;51730;56.950;24.126;2023-05-07T09:52:22;11.80;36.00
65146;DHT22;51730;56.950;24.126;2023-05-07T09:54:50;11.80;36.00
65146;DHT22;51730;56.950;24.126;2023-05-07T09:57:18;11.80;34.40
65146;DHT22;51730;56.950;24.126;2023-05-07T09:59:47;11.60;34.70
65146;DHT22;51730;56.950;24.126;2023-05-07T10:02:15;11.50;35.70
65146;DHT22;51730;56.950;24.126;2023-05-07T10:04:44;11.60;35.60
65146;DHT22;51730;56.950;24.126;2023-05-07T10:07:13;11.60;35.30
65146;DHT22;51730;56.950;24.126;2023-05-07T10:09:40;11.70;35.80
65146;DHT22;51730;56.950;24.126;2023-05-07T10:12:08;11.70;34.80
65146;DHT22;51730;56.950;24.126;2023-05-07T10:14:35;11.70;36.00
65146;DHT22;51730;56.950;24.126;2023-05-07T10:17:02;11.80;36.10
65146;DHT22;51730;56.950;24.126;2023-05-07T10:19:29;11.90;35.90
65146;DHT22;51730;56.950;24.126;2023-05-07T10:21:59;12.00;35.80
65146;DHT22;51730;56.950;24.126;2023-05-07T10:24:32;12.10;36.20
65146;DHT22;51730;56.950;24.126;2023-05-07T10:27:01;12.10;36.50
65146;DHT22;51730;56.950;24.126;2023-05-07T10:34:37;11.90;36.80
65146;DHT22;51730;56.950;24.126;2023-05-07T10:37:07;11.90;37.70
65146;DHT22;51730;56.950;24.126;2023-05-07T10:39:36;12.00;37.20
65146;DHT22;51730;56.950;24.126;2023-05-07T10:42:12;11.50;37.40
65146;DHT22;51730;56.950;24.126;2023-05-07T10:44:42;11.50;38.70
65146;DHT22;51730;56.950;24.126;2023-05-07T10:47:13;11.40;38.40
65146;DHT22;51730;56.950;24.126;2023-05-07T10:52:17;11.80;37.80
65146;DHT22;51730;56.950;24.126;2023-05-07T10:54:45;11.80;37.80
65146;DHT22;51730;56.950;24.126;2023-05-07T10:57:34;11.90;37.90
65146;DHT22;51730;56.950;24.126;2023-05-07T10:59:59;12.10;37.80
65146;DHT22;51730;56.950;24.126;2023-05-07T11:03:12;12.00;37.50
65146;DHT22;51730;56.950;24.126;2023-05-07T11:05:19;12.10;37.20
65146;DHT22;51730;56.950;24.126;2023-05-07T11:08:03;12.10;37.60
65146;DHT22;51730;56.950;24.126;2023-05-07T11:16:15;12.20;37.70
65146;DHT22;51730;56.950;24.126;2023-05-07T11:18:49;12.30;36.90
65146;DHT22;51730;56.950;24.126;2023-05-07T11:21:35;12.40;36.90
65146;DHT22;51730;56.950;24.126;2023-05-07T11:24:03;12.40;37.10
65146;DHT22;51730;56.950;24.126;2023-05-07T11:26:30;12.40;36.60
65146;DHT22;51730;56.950;24.126;2023-05-07T11:28:59;12.30;36.90
65146;DHT22;51730;56.950;24.126;2023-05-07T11:31:27;12.30;36.80
65146;DHT22;51730;56.950;24.126;2023-05-07T11:33:55;12.20;36.30
65146;DHT22;51730;56.950;24.126;2023-05-07T11:36:23;12.10;36.60
65146;DHT22;51730;56.950;24.126;2023-05-07T11:38:50;12.20;37.10
65146;DHT22;51730;56.950;24.126;2023-05-07T11:41:18;12.10;36.30
65146;DHT22;51730;56.950;24.126;2023-05-07T11:43:56;11.80;36.40
65146;DHT22;51730;56.950;24.126;2023-05-07T11:46:23;11.80;37.20
65146;DHT22;51730;56.950;24.126;2023-05-07T11:48:50;11.90;37.40
65146;DHT22;51730;56.950;24.126;2023-05-07T11:51:19;12.00;37.10
65146;DHT22;51730;56.950;24.126;2023-05-07T11:53:47;12.10;36.70
65146;DHT22;51730;56.950;24.126;2023-05-07T11:56:16;12.20;36.20
65146;DHT22;51730;56.950;24.126;2023-05-07T11:58:44;12.20;36.90
65146;DHT22;51730;56.950;24.126;2023-05-07T12:01:12;12.20;36.70
65146;DHT22;51730;56.950;24.126;2023-05-07T12:03:39;12.20;37.70
65146;DHT22;51730;56.950;24.126;2023-05-07T12:06:10;12.30;37.00
65146;DHT22;51730;56.950;24.126;2023-05-07T12:08:39;12.30;36.90
65146;DHT22;51730;56.950;24.126;2023-05-07T12:11:10;12.40;36.60
65146;DHT22;51730;56.950;24.126;2023-05-07T12:13:40;12.30;36.50
65146;DHT22;51730;56.950;24.126;2023-05-07T12:16:09;12.20;37.30
65146;DHT22;51730;56.950;24.126;2023-05-07T12:18:36;12.30;36.80
65146;DHT22;51730;56.950;24.126;2023-05-07T12:21:05;12.20;36.70
65146;DHT22;51730;56.950;24.126;2023-05-07T12:23:33;12.20;36.90
65146;DHT22;51730;56.950;24.126;2023-05-07T12:26:00;12.20;36.90
65146;DHT22;51730;56.950;24.126;2023-05-07T12:28:30;12.30;36.80
65146;DHT22;51730;56.950;24.126;2023-05-07T12:31:01;12.20;36.60
65146;DHT22;51730;56.950;24.126;2023-05-07T12:33:29;12.10;36.80
65146;DHT22;51730;56.950;24.126;2023-05-07T12:35:58;12.10;36.70
65146;DHT22;51730;56.950;24.126;2023-05-07T12:38:25;12.10;36.70
65146;DHT22;51730;56.950;24.126;2023-05-07T12:40:55;11.90;36.70
65146;DHT22;51730;56.950;24.126;2023-05-07T12:43:25;11.90;36.60
65146;DHT22;51730;56.950;24.126;2023-05-07T12:45:56;11.90;36.80
65146;DHT22;51730;56.950;24.126;2023-05-07T12:48:24;11.90;36.50
65146;DHT22;51730;56.950;24.126;2023-05-07T12:50:53;12.00;36.00
65146;DHT22;51730;56.950;24.126;2023-05-07T12:53:22;11.90;36.50
65146;DHT22;51730;56.950;24.126;2023-05-07T12:55:56;11.90;36.60
65146;DHT22;51730;56.950;24.126;2023-05-07T12:58:28;11.90;36.70
65146;DHT22;51730;56.950;24.126;2023-05-07T13:00:58;11.90;36.50
65146;DHT22;51730;56.950;24.126;2023-05-07T13:03:28;11.90;37.10
65146;DHT22;51730;56.950;24.126;2023-05-07T13:05:57;11.90;37.10
65146;DHT22;51730;56.950;24.126;2023-05-07T13:10:54;12.20;37.00
65146;DHT22;51730;56.950;24.126;2023-05-07T13:13:21;12.30;36.90
65146;DHT22;51730;56.950;24.126;2023-05-07T13:15:48;12.40;37.00
65146;DHT22;51730;56.950;24.126;2023-05-07T13:18:15;12.50;36.70
65146;DHT22;51730;56.950;24.126;2023-05-07T13:20:44;12.50;36.70
65146;DHT22;51730;56.950;24.126;2023-05-07T13:23:10;12.40;37.30
65146;DHT22;51730;56.950;24.126;2023-05-07T13:25:37;12.40;37.20
65146;DHT22;51730;56.950;24.126;2023-05-07T13:28:04;12.30;37.50
65146;DHT22;51730;56.950;24.126;2023-05-07T13:30:37;12.10;37.10
65146;DHT22;51730;56.950;24.126;2023-05-07T13:33:05;11.90;37.50
65146;DHT22;51730;56.950;24.126;2023-05-07T13:35:35;12.00;37.60
65146;DHT22;51730;56.950;24.126;2023-05-07T13:38:02;12.10;37.20
65146;DHT22;51730;56.950;24.126;2023-05-07T13:40:31;12.20;37.20
65146;DHT22;51730;56.950;24.126;2023-05-07T13:42:58;12.00;37.50
65146;DHT22;51730;56.950;24.126;2023-05-07T13:45:29;12.10;36.90
65146;DHT22;51730;56.950;24.126;2023-05-07T13:47:56;12.10;36.70
65146;DHT22;51730;56.950;24.126;2023-05-07T13:50:25;12.10;37.20
65146;DHT22;51730;56.950;24.126;2023-05-07T13:52:53;12.20;38.10
65146;DHT22;51730;56.950;24.126;2023-05-07T13:55:24;12.30;37.60
65146;DHT22;51730;56.950;24.126;2023-05-07T13:57:59;12.30;37.40
65146;DHT22;51730;56.950;24.126;2023-05-07T14:00:27;12.30;37.80
65146;DHT22;51730;56.950;24.126;2023-05-07T14:02:57;12.40;38.10
65146;DHT22;51730;56.950;24.126;2023-05-07T14:05:24;12.40;37.90
65146;DHT22;51730;56.950;24.126;2023-05-07T14:07:52;12.40;37.90
65146;DHT22;51730;56.950;24.126;2023-05-07T14:10:19;12.30;37.50
65146;DHT22;51730;56.950;24.126;2023-05-07T14:12:46;12.20;37.80
65146;DHT22;51730;56.950;24.126;2023-05-07T14:15:13;12.20;38.10
65146;DHT22;51730;56.950;24.126;2023-05-07T14:17:40;12.10;38.10
65146;DHT22;51730;56.950;24.126;2023-05-07T14:20:07;12.00;38.30
65146;DHT22;51730;56.950;24.126;2023-05-07T14:22:34;11.90;38.60
